Time;durP1;ratioP1;P1;durP2;ratioP2;P2;SDS_P1;SDS_P2;PMS_P1;PMS_P2;Temp;Humidity;BMP_temperature;BMP_pressure;BME280_temperature;BME280_humidity;BME280_pressure;Samples;Min_cycle;Max_cycle;Signal;HPM_P1;HPM_P2
2021/11/01 00:01:13;;;;;;;11.97;2.80;;;;;;;;;;6176655;23;20156;-70
2021/11/01 00:03:39;;;;;;;13.43;2.80;;;;;;;;;;6153484;23;20298;-69
2021/11/01 00:06:06;;;;;;;15.13;3.37;;;;;;;;;;6178829;23;20172;-69
2021/11/01 00:08:31;;;;;;;17.23;3.97;;;;;;;;;;6178697;23;20623;-70
2021/11/01 00:10:56;;;;;;;16.13;3.20;;;;;;;;;;6180580;23;20378;-69
2021/11/01 00:13:21;;;;;;;12.40;2.93;;;;;;;;;;6178389;23;20165;-70
2021/11/01 00:15:47;;;;;;;17.43;4.43;;;;;;;;;;6178667;23;20199;-70
2021/11/01 00:18:12;;;;;;;19.70;4.93;;;;;;;;;;6179551;23;20570;-71
2021/11/01 00:20:38;;;;;;;12.97;3.20;;;;;;;;;;6180056;23;20484;-69
2021/11/01 00:23:03;;;;;;;15.80;2.90;;;;;;;;;;6177298;23;20207;-69
2021/11/01 00:25:28;;;;;;;11.73;2.93;;;;;;;;;;6178607;23;20153;-69
2021/11/01 00:27:55;;;;;;;18.03;4.33;;;;;;;;;;6175925;23;20204;-69
2021/11/01 00:30:20;;;;;;;14.47;3.43;;;;;;;;;;6180133;23;20168;-69
2021/11/01 00:32:47;;;;;;;16.33;2.97;;;;;;;;;;6177793;23;20379;-69
2021/11/01 00:35:12;;;;;;;20.50;3.43;;;;;;;;;;6179481;23;20148;-69
2021/11/01 00:37:37;;;;;;;24.27;4.77;;;;;;;;;;6178219;23;20454;-69
2021/11/01 00:40:03;;;;;;;15.10;3.53;;;;;;;;;;6178874;23;20172;-69
2021/11/01 00:42:28;;;;;;;19.37;3.47;;;;;;;;;;6179611;23;20145;-69
2021/11/01 00:44:53;;;;;;;13.77;3.00;;;;;;;;;;6178656;23;20239;-69
2021/11/01 00:47:19;;;;;;;10.50;2.57;;;;;;;;;;6179724;23;20228;-69
2021/11/01 00:49:44;;;;;;;19.60;3.80;;;;;;;;;;6178957;23;20168;-69
2021/11/01 00:52:09;;;;;;;17.00;3.50;;;;;;;;;;6178571;23;20141;-69
2021/11/01 00:54:35;;;;;;;20.50;4.00;;;;;;;;;;6177682;23;20176;-69
2021/11/01 00:57:01;;;;;;;12.73;3.63;;;;;;;;;;6176680;23;20341;-69
2021/11/01 00:59:26;;;;;;;22.57;4.07;;;;;;;;;;6178947;23;20696;-69
2021/11/01 01:01:52;;;;;;;13.17;3.70;;;;;;;;;;6180885;23;20144;-69
2021/11/01 01:04:17;;;;;;;23.77;4.80;;;;;;;;;;6178511;23;20583;-69
2021/11/01 01:06:45;;;;;;;14.63;3.70;;;;;;;;;;6178703;23;20148;-70
2021/11/01 01:09:10;;;;;;;17.03;3.33;;;;;;;;;;6178559;23;20160;-69
2021/11/01 01:11:36;;;;;;;20.50;4.17;;;;;;;;;;6178626;23;20424;-69
2021/11/01 01:14:01;;;;;;;16.37;3.77;;;;;;;;;;6178967;23;20596;-70
2021/11/01 01:16:28;;;;;;;13.47;3.80;;;;;;;;;;6179415;23;20145;-69
2021/11/01 01:18:57;;;;;;;15.47;4.00;;;;;;;;;;6178714;23;20145;-69
2021/11/01 01:24:11;;;;;;;20.70;3.53;;;;;;;;;;6124260;23;20740;-69
2021/11/01 01:26:37;;;;;;;15.10;3.53;;;;;;;;;;6174321;23;20379;-69
2021/11/01 01:29:02;;;;;;;22.97;4.50;;;;;;;;;;6178206;23;20617;-69
2021/11/01 01:31:27;;;;;;;24.43;3.80;;;;;;;;;;6178665;23;20171;-70
2021/11/01 01:33:53;;;;;;;15.97;4.00;;;;;;;;;;6150649;23;20175;-69
2021/11/01 01:36:18;;;;;;;20.93;4.13;;;;;;;;;;6179429;23;20145;-70
2021/11/01 01:38:44;;;;;;;16.67;3.90;;;;;;;;;;6179016;23;20647;-69
2021/11/01 01:41:19;;;;;;;19.53;3.60;;;;;;;;;;6178319;23;20148;-71
2021/11/01 01:43:49;;;;;;;18.50;3.90;;;;;;;;;;6178602;23;20171;-69
2021/11/01 01:46:15;;;;;;;17.90;4.03;;;;;;;;;;6176635;23;20363;-69
2021/11/01 01:48:41;;;;;;;19.93;4.17;;;;;;;;;;6177891;23;20957;-69
2021/11/01 01:51:07;;;;;;;15.70;3.43;;;;;;;;;;6179292;23;20366;-69
2021/11/01 01:53:32;;;;;;;12.00;3.50;;;;;;;;;;6179970;23;20945;-69
2021/11/01 01:55:58;;;;;;;10.77;3.77;;;;;;;;;;6178919;23;20370;-70
2021/11/01 01:58:24;;;;;;;22.00;4.27;;;;;;;;;;6179791;23;20199;-69
2021/11/01 02:03:18;;;;;;;23.63;3.83;;;;;;;;;;6181089;23;20398;-69
2021/11/01 02:06:04;;;;;;;18.17;3.20;;;;;;;;;;6179238;23;20368;-69
2021/11/01 02:08:30;;;;;;;15.50;3.20;;;;;;;;;;6177736;23;20262;-69
2021/11/01 02:11:04;;;;;;;14.20;3.20;;;;;;;;;;6180347;23;20364;-69
2021/11/01 02:13:33;;;;;;;14.20;3.23;;;;;;;;;;6179335;23;20387;-69
2021/11/01 02:15:58;;;;;;;17.50;3.60;;;;;;;;;;6181037;23;20359;-70
2021/11/01 02:18:25;;;;;;;16.27;3.50;;;;;;;;;;6179761;23;20707;-69
2021/11/01 02:21:03;;;;;;;11.77;3.00;;;;;;;;;;6180616;23;20363;-69
2021/11/01 02:23:48;;;;;;;20.37;4.57;;;;;;;;;;6180076;23;20395;-69
2021/11/01 02:26:14;;;;;;;16.23;3.40;;;;;;;;;;6178233;23;20463;-69
2021/11/01 02:28:40;;;;;;;20.70;4.03;;;;;;;;;;6179744;23;21085;-69
2021/11/01 02:31:11;;;;;;;16.63;4.00;;;;;;;;;;6178105;23;20364;-70
2021/11/01 02:33:36;;;;;;;13.87;3.77;;;;;;;;;;6181330;23;20726;-69
2021/11/01 02:36:03;;;;;;;13.77;3.30;;;;;;;;;;6179377;23;20363;-70
2021/11/01 02:38:31;;;;;;;12.37;3.03;;;;;;;;;;6180656;23;20145;-69
2021/11/01 02:40:57;;;;;;;15.03;3.27;;;;;;;;;;6179745;23;20719;-69
2021/11/01 02:43:25;;;;;;;12.37;3.00;;;;;;;;;;6180397;23;20419;-69
2021/11/01 02:45:50;;;;;;;14.50;3.03;;;;;;;;;;6179105;23;20152;-69
2021/11/01 02:48:15;;;;;;;18.37;4.00;;;;;;;;;;6181188;23;20422;-69
2021/11/01 02:50:41;;;;;;;17.50;4.00;;;;;;;;;;6180497;23;20215;-69
2021/11/01 02:53:06;;;;;;;14.10;3.40;;;;;;;;;;6179998;23;20177;-70
2021/11/01 02:55:33;;;;;;;12.83;3.40;;;;;;;;;;6181127;23;20667;-69
2021/11/01 02:57:59;;;;;;;18.90;3.73;;;;;;;;;;6180662;23;20152;-69
2021/11/01 03:00:26;;;;;;;15.57;4.10;;;;;;;;;;6155351;23;20402;-69
2021/11/01 03:02:51;;;;;;;15.87;3.73;;;;;;;;;;6180423;23;20251;-69
2021/11/01 03:05:18;;;;;;;16.60;3.70;;;;;;;;;;6179169;23;20396;-69
2021/11/01 03:07:44;;;;;;;21.07;4.00;;;;;;;;;;6180983;23;20145;-69
2021/11/01 03:10:10;;;;;;;14.90;3.40;;;;;;;;;;6182370;23;20422;-69
2021/11/01 03:12:40;;;;;;;15.13;3.20;;;;;;;;;;6179808;23;20469;-69
2021/11/01 03:15:06;;;;;;;20.63;3.20;;;;;;;;;;6180461;23;20152;-70
2021/11/01 03:17:36;;;;;;;18.50;3.63;;;;;;;;;;6181242;23;20364;-70
2021/11/01 03:20:07;;;;;;;15.70;3.13;;;;;;;;;;6180945;23;20376;-69
2021/11/01 03:22:39;;;;;;;15.30;3.40;;;;;;;;;;6181015;23;20391;-69
2021/11/01 03:25:06;;;;;;;10.93;3.13;;;;;;;;;;6180850;23;20356;-70
2021/11/01 03:27:34;;;;;;;12.23;3.77;;;;;;;;;;6180067;23;20372;-70
2021/11/01 03:30:00;;;;;;;14.57;3.53;;;;;;;;;;6181416;23;20416;-69
2021/11/01 03:32:25;;;;;;;19.00;3.50;;;;;;;;;;6178326;23;20375;-70
2021/11/01 03:34:51;;;;;;;11.80;3.17;;;;;;;;;;6179988;23;20160;-70
2021/11/01 03:37:17;;;;;;;13.33;3.00;;;;;;;;;;6181402;23;20605;-69
2021/11/01 03:39:43;;;;;;;13.00;3.00;;;;;;;;;;6180510;23;20626;-70
2021/11/01 03:42:10;;;;;;;9.53;2.83;;;;;;;;;;6181568;23;20383;-69
2021/11/01 03:44:39;;;;;;;13.63;3.60;;;;;;;;;;6178917;23;20507;-70
2021/11/01 03:47:06;;;;;;;9.33;2.80;;;;;;;;;;6181195;23;20364;-69
2021/11/01 03:49:35;;;;;;;15.50;4.20;;;;;;;;;;6179183;23;20429;-69
2021/11/01 03:52:14;;;;;;;13.23;2.93;;;;;;;;;;6178951;23;20364;-70
2021/11/01 03:54:39;;;;;;;9.20;2.60;;;;;;;;;;6179145;23;20458;-69
2021/11/01 03:57:06;;;;;;;12.00;3.20;;;;;;;;;;6179615;23;20373;-69
2021/11/01 03:59:32;;;;;;;13.13;2.63;;;;;;;;;;6178911;23;20159;-70
2021/11/01 04:01:57;;;;;;;16.30;2.93;;;;;;;;;;6179555;23;20399;-69
2021/11/01 04:04:23;;;;;;;21.63;3.73;;;;;;;;;;6178496;23;20698;-70
2021/11/01 04:06:48;;;;;;;17.43;3.20;;;;;;;;;;6178876;23;20159;-70
2021/11/01 04:09:15;;;;;;;18.23;3.93;;;;;;;;;;6178682;23;20168;-69
2021/11/01 04:11:44;;;;;;;16.57;3.73;;;;;;;;;;6179900;23;20222;-69
2021/11/01 04:14:15;;;;;;;13.43;3.07;;;;;;;;;;6178387;23;20384;-69
2021/11/01 04:16:47;;;;;;;13.23;3.10;;;;;;;;;;6179256;23;20348;-69
2021/11/01 04:21:41;;;;;;;16.40;3.63;;;;;;;;;;6178747;23;20430;-69
2021/11/01 04:24:07;;;;;;;16.27;2.87;;;;;;;;;;6176335;23;20388;-70
2021/11/01 04:26:32;;;;;;;10.07;2.77;;;;;;;;;;6179293;23;20383;-69
2021/11/01 04:28:58;;;;;;;14.97;3.50;;;;;;;;;;6152597;23;20168;-69
2021/11/01 04:31:29;;;;;;;8.30;2.33;;;;;;;;;;6178764;23;20152;-69
2021/11/01 04:33:58;;;;;;;14.10;3.07;;;;;;;;;;6178768;23;20380;-69
2021/11/01 04:36:23;;;;;;;13.90;2.87;;;;;;;;;;6179205;23;20368;-69
2021/11/01 04:42:04;;;;;;;12.70;2.80;;;;;;;;;;6159715;23;20152;-69
2021/11/01 04:55:12;;;;;;;10.03;2.50;;;;;;;;;;6178539;23;21192;-70
2021/11/01 04:57:38;;;;;;;11.10;2.70;;;;;;;;;;6152632;23;20380;-69
2021/11/01 05:00:04;;;;;;;12.07;3.20;;;;;;;;;;6180227;23;20378;-69
2021/11/01 05:02:29;;;;;;;8.43;2.23;;;;;;;;;;6179157;23;21077;-69
2021/11/01 05:04:55;;;;;;;15.03;2.57;;;;;;;;;;6178719;23;20846;-69
2021/11/01 05:07:21;;;;;;;10.80;2.87;;;;;;;;;;6180257;23;20149;-69
2021/11/01 05:09:54;;;;;;;13.13;3.00;;;;;;;;;;6180056;23;20294;-70
2021/11/01 05:19:55;;;;;;;10.20;2.50;;;;;;;;;;6179603;23;20403;-70
2021/11/01 05:22:30;;;;;;;9.60;3.10;;;;;;;;;;6180629;23;20422;-69
2021/11/01 05:30:14;;;;;;;9.20;2.27;;;;;;;;;;6145435;23;20439;-69
2021/11/01 05:32:42;;;;;;;9.73;2.13;;;;;;;;;;6177777;23;20364;-70
2021/11/01 05:35:08;;;;;;;11.10;2.33;;;;;;;;;;6174269;23;20837;-70
2021/11/01 05:37:34;;;;;;;12.07;2.90;;;;;;;;;;6177975;23;20455;-69
2021/11/01 05:39:59;;;;;;;11.00;2.57;;;;;;;;;;6179360;23;20267;-70
2021/11/01 05:42:25;;;;;;;9.90;2.90;;;;;;;;;;6175266;23;20514;-70
2021/11/01 05:44:50;;;;;;;10.97;2.70;;;;;;;;;;6175834;23;20161;-70
2021/11/01 05:47:16;;;;;;;14.93;3.20;;;;;;;;;;6151522;23;20164;-70
2021/11/01 05:49:41;;;;;;;10.10;2.83;;;;;;;;;;6178160;23;20183;-70
2021/11/01 05:52:16;;;;;;;17.03;3.40;;;;;;;;;;6179588;23;20483;-70
2021/11/01 05:54:41;;;;;;;15.70;3.20;;;;;;;;;;6175981;23;20377;-70
2021/11/01 05:57:16;;;;;;;14.73;3.57;;;;;;;;;;6178816;23;20375;-71
2021/11/01 06:00:00;;;;;;;13.70;3.50;;;;;;;;;;6178429;23;20567;-69
2021/11/01 06:02:46;;;;;;;8.90;3.30;;;;;;;;;;6179371;23;20407;-71
2021/11/01 06:05:17;;;;;;;12.77;3.07;;;;;;;;;;6175568;23;20713;-71
2021/11/01 06:08:42;;;;;;;13.37;3.30;;;;;;;;;;6178306;23;20432;-71
2021/11/01 06:10:51;;;;;;;8.67;2.40;;;;;;;;;;6161183;23;20438;-71
2021/11/01 06:13:29;;;;;;;10.63;3.10;;;;;;;;;;6177530;23;20467;-71
2021/11/01 06:15:55;;;;;;;11.00;3.00;;;;;;;;;;6178132;23;20351;-71
2021/11/01 06:18:21;;;;;;;6.30;2.40;;;;;;;;;;6178441;23;20658;-71
2021/11/01 06:20:47;;;;;;;14.07;2.40;;;;;;;;;;6178240;23;20834;-71
2021/11/01 06:23:13;;;;;;;8.53;2.30;;;;;;;;;;6176535;23;20395;-71
2021/11/01 06:25:38;;;;;;;10.40;2.53;;;;;;;;;;6177272;23;20148;-71
2021/11/01 06:28:04;;;;;;;12.60;3.20;;;;;;;;;;6179702;23;20499;-72
2021/11/01 06:31:07;;;;;;;13.93;2.93;;;;;;;;;;6178195;23;20873;-71
2021/11/01 06:33:49;;;;;;;6.50;2.33;;;;;;;;;;6169292;23;20693;-71
2021/11/01 06:42:17;;;;;;;10.30;2.17;;;;;;;;;;6096180;23;20828;-70
2021/11/01 06:50:34;;;;;;;10.00;2.67;;;;;;;;;;6187760;23;20192;-70
2021/11/01 07:16:43;;;;;;;10.77;2.60;;;;;;;;;;6178625;23;20400;-71
2021/11/01 07:19:19;;;;;;;9.00;2.30;;;;;;;;;;6176999;23;20344;-72
2021/11/01 08:27:14;;;;;;;13.13;2.40;;;;;;;;;;6179545;23;20712;-71
2021/11/01 08:43:23;;;;;;;8.97;2.20;;;;;;;;;;6176189;23;20388;-71
2021/11/01 08:46:43;;;;;;;10.23;2.60;;;;;;;;;;6176454;23;20340;-70
2021/11/01 09:21:17;;;;;;;12.80;2.20;;;;;;;;;;6178600;23;20394;-71
2021/11/01 09:26:34;;;;;;;11.43;2.70;;;;;;;;;;6177564;23;20718;-70
2021/11/01 09:29:30;;;;;;;9.80;2.10;;;;;;;;;;6178327;23;20939;-71
2021/11/01 09:37:57;;;;;;;8.13;2.10;;;;;;;;;;6179022;23;20854;-72
2021/11/01 09:42:43;;;;;;;6.73;2.30;;;;;;;;;;6174856;23;20351;-72
2021/11/01 09:45:09;;;;;;;8.93;2.20;;;;;;;;;;6173957;23;21024;-70
2021/11/01 09:47:36;;;;;;;11.03;1.73;;;;;;;;;;6178633;23;20372;-70
2021/11/01 09:50:03;;;;;;;9.33;2.00;;;;;;;;;;6174889;23;20259;-70
2021/11/01 09:52:28;;;;;;;10.30;1.93;;;;;;;;;;6152430;23;20388;-70
2021/11/01 09:54:56;;;;;;;9.57;2.00;;;;;;;;;;6177744;23;20404;-70
2021/11/01 09:57:28;;;;;;;9.20;2.73;;;;;;;;;;6176538;23;20722;-71
2021/11/01 09:59:54;;;;;;;7.63;1.80;;;;;;;;;;6174418;23;20355;-70
2021/11/01 10:02:21;;;;;;;9.40;1.97;;;;;;;;;;6175705;23;20372;-71
2021/11/01 10:04:48;;;;;;;8.07;2.00;;;;;;;;;;6177620;23;20192;-71
2021/11/01 10:09:49;;;;;;;7.93;2.30;;;;;;;;;;6178559;23;20415;-70
2021/11/01 10:12:22;;;;;;;11.10;2.10;;;;;;;;;;6178335;23;20494;-70
2021/11/01 10:14:48;;;;;;;9.10;2.30;;;;;;;;;;6180288;23;20779;-70
2021/11/01 10:19:58;;;;;;;8.43;2.57;;;;;;;;;;6180208;23;20396;-70
2021/11/01 10:22:31;;;;;;;9.30;2.40;;;;;;;;;;6178659;23;20376;-70
2021/11/01 10:24:57;;;;;;;8.40;2.20;;;;;;;;;;6179891;23;20373;-71
2021/11/01 10:27:30;;;;;;;7.83;2.30;;;;;;;;;;6180665;23;20912;-71
2021/11/01 10:29:59;;;;;;;12.40;2.50;;;;;;;;;;6180783;23;20176;-70
2021/11/01 10:32:28;;;;;;;9.50;2.43;;;;;;;;;;6181718;23;20372;-70
2021/11/01 10:35:03;;;;;;;10.00;2.90;;;;;;;;;;6179105;23;20438;-71
2021/11/01 10:37:28;;;;;;;7.13;2.20;;;;;;;;;;6180563;23;20375;-69
2021/11/01 10:39:54;;;;;;;8.63;2.60;;;;;;;;;;6176669;23;20368;-70
2021/11/01 10:42:30;;;;;;;10.07;2.83;;;;;;;;;;6182669;23;20152;-70
2021/11/01 10:45:10;;;;;;;8.27;2.90;;;;;;;;;;6180373;23;20427;-70
2021/11/01 11:10:55;;;;;;;8.60;2.83;;;;;;;;;;6176765;23;20490;-70
2021/11/01 11:15:45;;;;;;;7.53;1.80;;;;;;;;;;6148383;23;20850;-74
2021/11/01 11:21:10;;;;;;;6.10;2.37;;;;;;;;;;6177305;23;20348;-69
2021/11/01 11:29:03;;;;;;;6.83;2.00;;;;;;;;;;6175467;23;20419;-70
2021/11/01 11:32:40;;;;;;;10.53;2.60;;;;;;;;;;6176994;23;20372;-70
2021/11/01 11:50:41;;;;;;;6.50;2.17;;;;;;;;;;6177438;23;20344;-70
2021/11/01 11:53:07;;;;;;;10.00;2.03;;;;;;;;;;6177515;23;20400;-71
2021/11/01 11:55:32;;;;;;;7.07;1.73;;;;;;;;;;6177984;23;20159;-71
2021/11/01 11:57:59;;;;;;;5.07;2.10;;;;;;;;;;6176511;23;20729;-71
2021/11/01 12:00:25;;;;;;;7.50;2.57;;;;;;;;;;6177329;23;20152;-72
2021/11/01 12:02:50;;;;;;;6.70;1.67;;;;;;;;;;6176997;23;20364;-72
2021/11/01 12:05:26;;;;;;;7.83;2.10;;;;;;;;;;6178533;23;20387;-70
2021/11/01 12:08:06;;;;;;;7.90;1.60;;;;;;;;;;6181938;23;20132;-71
2021/11/01 12:13:42;;;;;;;9.10;1.77;;;;;;;;;;6179635;23;20427;-71
2021/11/01 12:18:55;;;;;;;5.57;1.93;;;;;;;;;;6181643;23;20473;-71
2021/11/01 12:21:22;;;;;;;8.87;2.00;;;;;;;;;;6179485;23;20620;-71
2021/11/01 12:23:47;;;;;;;6.60;1.77;;;;;;;;;;6180529;23;20388;-71
2021/11/01 12:26:14;;;;;;;7.30;2.17;;;;;;;;;;6182091;23;20715;-71
2021/11/01 12:28:40;;;;;;;4.53;1.60;;;;;;;;;;6180957;23;20175;-71
2021/11/01 12:31:09;;;;;;;5.67;1.77;;;;;;;;;;6180436;23;20364;-73
2021/11/01 12:33:35;;;;;;;4.93;1.40;;;;;;;;;;6181366;23;20380;-71
2021/11/01 12:36:04;;;;;;;7.90;1.83;;;;;;;;;;6180906;23;20360;-71
2021/11/01 12:38:36;;;;;;;6.20;1.97;;;;;;;;;;6181224;23;20872;-72
2021/11/01 12:41:10;;;;;;;8.83;1.57;;;;;;;;;;6180813;23;20690;-71
2021/11/01 12:49:06;;;;;;;10.67;1.87;;;;;;;;;;6191241;23;20423;-71
2021/11/01 12:57:19;;;;;;;4.17;1.20;;;;;;;;;;6176363;23;20367;-70
2021/11/01 12:59:49;;;;;;;8.33;1.63;;;;;;;;;;6176560;23;20340;-70
2021/11/01 13:02:25;;;;;;;7.30;1.67;;;;;;;;;;6179162;23;20348;-70
2021/11/01 13:04:51;;;;;;;10.50;1.23;;;;;;;;;;6178524;23;20391;-70
2021/11/01 13:09:59;;;;;;;6.70;1.80;;;;;;;;;;6182992;23;20532;-70
2021/11/01 13:12:52;;;;;;;5.20;1.60;;;;;;;;;;6176274;23;20507;-70
2021/11/01 13:17:53;;;;;;;5.80;1.50;;;;;;;;;;6176409;23;20722;-70
2021/11/01 13:20:20;;;;;;;10.23;1.87;;;;;;;;;;6178035;23;20136;-71
2021/11/01 13:22:46;;;;;;;8.80;1.60;;;;;;;;;;6174913;23;20401;-70
2021/11/01 13:25:34;;;;;;;7.93;1.73;;;;;;;;;;6175445;23;20384;-71
2021/11/01 13:38:51;;;;;;;5.30;1.20;;;;;;;;;;6176994;23;20494;-71
2021/11/01 13:41:27;;;;;;;5.60;1.20;;;;;;;;;;6150376;23;20392;-72
2021/11/01 13:43:54;;;;;;;4.47;1.57;;;;;;;;;;6176645;23;20402;-71
2021/11/01 13:46:25;;;;;;;3.33;1.13;;;;;;;;;;6146732;23;20456;-71
2021/11/01 13:48:57;;;;;;;4.60;1.40;;;;;;;;;;6176238;23;20439;-71
2021/11/01 13:51:23;;;;;;;6.03;1.20;;;;;;;;;;6177624;23;20380;-71
2021/11/01 13:54:28;;;;;;;9.73;1.50;;;;;;;;;;6175009;23;20413;-71
2021/11/01 13:56:57;;;;;;;8.23;1.17;;;;;;;;;;6174924;23;20522;-71
2021/11/01 15:04:28;;;;;;;3.87;1.87;;;;;;;;;;6143593;23;20384;-71
2021/11/01 15:07:15;;;;;;;5.23;1.47;;;;;;;;;;6176559;23;20372;-70
2021/11/01 15:09:44;;;;;;;3.03;1.30;;;;;;;;;;6173978;23;20419;-72
2021/11/01 15:15:20;;;;;;;6.40;2.00;;;;;;;;;;6056028;23;20796;-72
2021/11/01 15:17:53;;;;;;;;;;;;;;;;;;;;;
2021/11/01 16:33:43;;;;;;;4.47;1.30;;;;;;;;;;5033634;28;20469;-73
2021/11/01 16:36:18;;;;;;;3.07;1.30;;;;;;;;;;5035850;28;20453;-73
2021/11/01 16:38:51;;;;;;;5.40;1.63;;;;;;;;;;5031785;28;20541;-73
2021/11/01 16:41:18;;;;;;;3.07;1.23;;;;;;;;;;5035813;28;20643;-74
2021/11/01 16:43:43;;;;;;;8.67;1.23;;;;;;;;;;5028831;28;20439;-72
2021/11/01 16:46:08;;;;;;;9.70;1.87;;;;;;;;;;5033297;28;20429;-73
2021/11/01 16:48:34;;;;;;;5.37;1.30;;;;;;;;;;5031523;28;20288;-73
2021/11/01 16:51:00;;;;;;;4.77;1.43;;;;;;;;;;5032295;28;20204;-74
2021/11/01 16:53:27;;;;;;;3.57;1.60;;;;;;;;;;5030026;28;20222;-73
2021/11/01 16:55:55;;;;;;;6.97;1.90;;;;;;;;;;5025046;28;20429;-74
2021/11/01 16:58:27;;;;;;;4.90;1.37;;;;;;;;;;5019802;28;20438;-74
2021/11/01 17:00:59;;;;;;;5.73;1.70;;;;;;;;;;5027450;28;20451;-74
2021/11/01 17:03:40;;;;;;;5.10;1.77;;;;;;;;;;5024571;28;20501;-74
2021/11/01 17:06:12;;;;;;;7.00;2.00;;;;;;;;;;5027215;28;20921;-73
2021/11/01 18:41:19;;;;;;;6.67;1.80;;;;;;;;;;5008536;28;20545;-74
2021/11/01 18:51:43;;;;;;;6.13;1.60;;;;;;;;;;5011675;28;20457;-75
2021/11/01 18:56:44;;;;;;;4.00;1.50;;;;;;;;;;5015575;28;20469;-75
2021/11/01 18:59:10;;;;;;;3.27;1.37;;;;;;;;;;5010751;28;20470;-74
2021/11/01 19:01:38;;;;;;;4.67;1.43;;;;;;;;;;5011851;28;20603;-74
2021/11/01 19:04:06;;;;;;;4.47;1.50;;;;;;;;;;5015318;28;20423;-75
2021/11/01 19:06:40;;;;;;;4.40;1.20;;;;;;;;;;5017993;28;20793;-74
2021/11/01 20:03:54;;;;;;;9.33;2.43;;;;;;;;;;5013667;28;20466;-75
2021/11/01 21:26:22;;;;;;;3.90;1.23;;;;;;;;;;5019701;28;20778;-73
2021/11/01 21:28:50;;;;;;;6.73;1.80;;;;;;;;;;5017549;28;20448;-72
2021/11/01 21:31:16;;;;;;;7.70;1.53;;;;;;;;;;5014790;28;20517;-73
2021/11/01 21:33:44;;;;;;;6.10;1.80;;;;;;;;;;5018804;28;20438;-72
2021/11/01 21:36:12;;;;;;;6.50;1.50;;;;;;;;;;5017810;28;20435;-73
2021/11/01 21:38:37;;;;;;;5.23;1.67;;;;;;;;;;5021135;28;20460;-73
2021/11/01 21:41:03;;;;;;;4.13;1.33;;;;;;;;;;5019606;28;20483;-74
2021/11/01 21:43:28;;;;;;;3.93;1.60;;;;;;;;;;5020465;28;20199;-73
2021/11/01 21:45:55;;;;;;;5.67;1.60;;;;;;;;;;5016316;28;20235;-74
2021/11/01 21:48:20;;;;;;;3.67;1.60;;;;;;;;;;5023174;28;20192;-74
2021/11/01 21:50:49;;;;;;;2.67;1.67;;;;;;;;;;5019415;28;20451;-74
2021/11/01 21:53:18;;;;;;;4.40;1.03;;;;;;;;;;5020616;28;20184;-73
2021/11/01 21:55:45;;;;;;;3.23;1.13;;;;;;;;;;5019398;28;20424;-73
2021/11/01 21:58:27;;;;;;;4.40;1.20;;;;;;;;;;5019174;28;20467;-74
2021/11/01 22:16:55;;;;;;;5.10;1.40;;;;;;;;;;5020660;28;20445;-74
2021/11/01 22:20:19;;;;;;;2.03;1.20;;;;;;;;;;5017589;28;20494;-73
2021/11/01 22:25:23;;;;;;;3.63;1.57;;;;;;;;;;5013179;28;20573;-74
2021/11/01 22:38:56;;;;;;;5.23;1.87;;;;;;;;;;5010647;28;20431;-74
2021/11/01 22:44:26;;;;;;;4.03;1.40;;;;;;;;;;5010492;28;20493;-74
2021/11/01 22:48:00;;;;;;;5.23;1.77;;;;;;;;;;5009656;28;20439;-74
2021/11/01 22:57:55;;;;;;;6.30;1.63;;;;;;;;;;5009225;28;20422;-73
2021/11/01 23:00:29;;;;;;;4.63;1.60;;;;;;;;;;5010922;28;20464;-73
2021/11/01 23:03:00;;;;;;;3.63;1.70;;;;;;;;;;5009291;28;20188;-73
2021/11/01 23:32:26;;;;;;;4.20;1.40;;;;;;;;;;5008292;28;20466;-74
2021/11/01 23:34:51;;;;;;;5.33;1.70;;;;;;;;;;5007776;28;20430;-74
2021/11/01 23:37:19;;;;;;;2.70;1.30;;;;;;;;;;5007821;28;20181;-74
2021/11/01 23:39:44;;;;;;;5.00;1.90;;;;;;;;;;5006533;28;20575;-74
2021/11/01 23:42:09;;;;;;;3.40;1.80;;;;;;;;;;5008723;28;20470;-74
2021/11/01 23:44:34;;;;;;;8.17;1.80;;;;;;;;;;5007737;28;25110;-73
2021/11/01 23:47:00;;;;;;;3.83;2.00;;;;;;;;;;5007112;28;25126;-74
2021/11/01 23:55:52;;;;;;;3.70;2.17;;;;;;;;;;4997936;28;25092;-73
2021/11/01 23:58:49;;;;;;;4.47;1.97;;;;;;;;;;5007531;28;25089;-73
